createdAt,value
2023-10-26T00:01:07.656Z,11.25
2023-10-26T00:03:09.281Z,12.35
2023-10-26T00:05:11.370Z,11.27
2023-10-26T00:07:12.955Z,12.13
2023-10-26T00:09:14.460Z,12.20
2023-10-26T00:11:15.988Z,12.10
2023-10-26T00:13:17.605Z,12.15
2023-10-26T00:15:19.307Z,12.77
2023-10-26T00:17:20.982Z,11.63
2023-10-26T00:19:22.517Z,12.05
2023-10-26T00:21:24.058Z,11.23
2023-10-26T00:23:25.715Z,12.75
2023-10-26T00:25:27.163Z,12.45
2023-10-26T00:27:28.608Z,11.88
2023-10-26T00:29:30.986Z,12.38
2023-10-26T00:31:32.547Z,12.45
2023-10-26T00:33:34.047Z,12.52
2023-10-26T00:35:35.669Z,12.60
2023-10-26T00:37:37.108Z,12.40
2023-10-26T00:39:38.619Z,13.10
2023-10-26T00:41:40.169Z,11.75
2023-10-26T00:43:41.893Z,11.75
2023-10-26T00:45:44.799Z,12.15
2023-10-26T00:47:46.429Z,11.63
2023-10-26T00:49:47.987Z,11.05
2023-10-26T00:51:56.384Z,9.32
2023-10-26T00:53:58.033Z,11.27
2023-10-26T00:55:59.640Z,10.88
2023-10-26T00:58:01.148Z,10.10
2023-10-26T01:00:04.085Z,10.98
2023-10-26T01:02:06.584Z,9.40
2023-10-26T01:04:08.058Z,10.77
2023-10-26T01:06:09.834Z,9.40
2023-10-26T01:08:11.556Z,10.98
2023-10-26T01:10:13.049Z,11.30
2023-10-26T01:12:15.149Z,11.27
2023-10-26T01:14:16.936Z,10.35
2023-10-26T01:16:19.185Z,10.75
2023-10-26T01:18:20.768Z,10.20
2023-10-26T01:20:22.366Z,10.93
2023-10-26T01:22:30.813Z,9.75
2023-10-26T01:24:32.295Z,10.65
2023-10-26T01:26:33.709Z,11.32
2023-10-26T01:28:35.246Z,10.60
2023-10-26T01:30:36.727Z,10.27
2023-10-26T01:32:38.181Z,10.25
2023-10-26T01:34:40.929Z,10.05
2023-10-26T01:36:42.405Z,9.25
2023-10-26T01:38:43.834Z,9.82
2023-10-26T01:40:45.295Z,10.80
2023-10-26T01:42:46.725Z,10.30
2023-10-26T01:44:48.261Z,10.35
2023-10-26T01:46:49.693Z,9.57
2023-10-26T01:48:51.267Z,10.40
2023-10-26T01:50:52.841Z,10.00
2023-10-26T01:52:54.893Z,9.88
2023-10-26T01:54:56.293Z,9.27
2023-10-26T01:56:57.749Z,8.82
2023-10-26T01:58:59.308Z,9.27
2023-10-26T02:01:01.998Z,9.50
2023-10-26T02:03:03.537Z,8.98
2023-10-26T02:05:05.733Z,9.32
2023-10-26T02:07:07.248Z,9.05
2023-10-26T02:09:08.840Z,9.50
2023-10-26T02:11:10.361Z,8.07
2023-10-26T02:13:12.693Z,9.95
2023-10-26T02:15:14.159Z,9.50
2023-10-26T02:17:16.558Z,9.05
2023-10-26T02:19:19.548Z,9.50
2023-10-26T02:21:21.267Z,9.13
2023-10-26T02:23:29.039Z,8.80
2023-10-26T02:25:30.488Z,9.25
2023-10-26T02:27:35.652Z,9.15
2023-10-26T02:29:37.210Z,8.20
2023-10-26T02:31:38.628Z,8.70
2023-10-26T02:33:40.129Z,9.52
2023-10-26T02:35:41.764Z,8.35
2023-10-26T02:37:43.574Z,9.45
2023-10-26T02:39:45.057Z,8.75
2023-10-26T02:41:46.573Z,8.00
2023-10-26T02:43:48.015Z,8.23
2023-10-26T02:45:49.602Z,7.50
2023-10-26T02:47:51.238Z,7.45
2023-10-26T02:49:53.140Z,7.13
2023-10-26T02:51:54.626Z,7.25
2023-10-26T02:53:56.097Z,7.63
2023-10-26T02:55:57.530Z,7.53
2023-10-26T02:57:59.587Z,7.55
2023-10-26T03:00:01.040Z,7.60
2023-10-26T03:02:02.523Z,7.35
2023-10-26T03:04:04.609Z,8.00
2023-10-26T03:06:06.301Z,8.35
2023-10-26T03:08:07.803Z,7.53
2023-10-26T03:10:09.507Z,7.82
2023-10-26T03:12:11.077Z,8.30
2023-10-26T03:14:12.601Z,8.50
2023-10-26T03:16:14.100Z,8.82
2023-10-26T03:18:15.982Z,8.80
2023-10-26T03:20:17.677Z,8.65
2023-10-26T03:22:19.168Z,9.00
2023-10-26T03:24:20.838Z,9.18
2023-10-26T03:26:23.056Z,9.57
2023-10-26T03:28:24.515Z,9.35
2023-10-26T03:30:26.032Z,9.88
2023-10-26T03:32:27.509Z,8.98
2023-10-26T03:34:29.052Z,9.40
2023-10-26T03:36:30.555Z,9.65
2023-10-26T03:38:32.346Z,9.00
2023-10-26T03:40:33.794Z,8.75
2023-10-26T03:42:35.560Z,9.60
2023-10-26T03:44:37.255Z,10.50
2023-10-26T03:46:38.732Z,9.90
2023-10-26T03:48:40.190Z,10.32
2023-10-26T03:50:47.776Z,9.30
2023-10-26T03:52:49.208Z,10.05
2023-10-26T03:54:51.094Z,10.88
2023-10-26T03:56:52.701Z,10.48
2023-10-26T03:58:54.282Z,9.93
2023-10-26T04:00:57.866Z,10.65
2023-10-26T04:02:59.462Z,10.73
2023-10-26T04:05:00.943Z,10.88
2023-10-26T04:07:02.484Z,10.10
2023-10-26T04:09:04.374Z,10.32
2023-10-26T04:11:05.941Z,9.80
2023-10-26T04:13:07.417Z,9.77
2023-10-26T04:15:09.249Z,10.13
2023-10-26T04:17:13.110Z,9.68
2023-10-26T04:19:15.209Z,10.32
2023-10-26T04:21:16.783Z,10.15
2023-10-26T04:23:19.250Z,9.80
2023-10-26T04:25:22.641Z,10.63
2023-10-26T04:27:24.233Z,9.45
2023-10-26T04:29:25.723Z,11.35
2023-10-26T04:31:27.303Z,10.77
2023-10-26T04:33:28.762Z,11.10
2023-10-26T04:35:30.703Z,11.25
2023-10-26T04:37:32.160Z,12.35
2023-10-26T04:39:33.617Z,11.57
2023-10-26T04:41:35.257Z,11.73
2023-10-26T04:43:37.032Z,11.65
2023-10-26T04:45:38.706Z,11.82
2023-10-26T04:47:40.361Z,10.63
2023-10-26T04:49:42.579Z,11.40
2023-10-26T04:51:44.209Z,11.13
2023-10-26T04:53:45.659Z,12.43
2023-10-26T04:55:47.076Z,10.95
2023-10-26T04:57:48.509Z,11.63
2023-10-26T04:59:49.962Z,10.88
2023-10-26T05:01:51.518Z,12.43
2023-10-26T05:03:54.518Z,11.35
2023-10-26T05:05:56.106Z,10.25
2023-10-26T05:07:57.718Z,11.35
2023-10-26T05:09:59.214Z,10.82
2023-10-26T05:12:00.668Z,11.52
2023-10-26T05:14:04.285Z,11.55
2023-10-26T05:16:05.933Z,10.93
2023-10-26T05:18:07.490Z,11.55
2023-10-26T05:20:10.413Z,11.73
2023-10-26T05:22:11.890Z,11.52
2023-10-26T05:24:13.395Z,12.40
2023-10-26T05:26:14.831Z,10.88
2023-10-26T05:28:16.767Z,11.63
2023-10-26T05:30:18.667Z,11.10
2023-10-26T05:32:21.626Z,11.85
2023-10-26T05:34:23.482Z,11.70
2023-10-26T05:36:25.115Z,12.63
2023-10-26T05:38:26.621Z,12.75
2023-10-26T05:40:28.080Z,11.82
2023-10-26T05:42:29.565Z,12.20
2023-10-26T05:44:32.706Z,12.55
2023-10-26T05:46:35.169Z,12.55
2023-10-26T05:48:36.725Z,12.85
2023-10-26T05:50:44.319Z,13.07
2023-10-26T05:52:45.787Z,12.50
2023-10-26T05:54:47.831Z,13.30
2023-10-26T05:56:49.286Z,13.38
2023-10-26T05:58:51.575Z,13.18
2023-10-26T06:00:53.628Z,13.48
2023-10-26T06:02:55.153Z,13.43
2023-10-26T06:04:56.568Z,12.48
2023-10-26T06:06:58.024Z,13.85
2023-10-26T06:09:01.018Z,13.68
2023-10-26T06:11:02.453Z,13.05
2023-10-26T06:13:03.925Z,13.13
2023-10-26T06:15:06.010Z,13.23
2023-10-26T06:17:07.568Z,13.77
2023-10-26T06:19:09.238Z,12.88
2023-10-26T06:21:10.724Z,13.93
2023-10-26T06:23:12.341Z,13.15
2023-10-26T06:25:13.869Z,13.65
2023-10-26T06:27:15.329Z,13.02
2023-10-26T06:29:16.787Z,14.10
2023-10-26T06:31:18.336Z,14.02
2023-10-26T06:33:19.881Z,14.68
2023-10-26T06:35:21.518Z,15.13
2023-10-26T06:37:23.014Z,15.48
2023-10-26T06:39:24.551Z,15.27
2023-10-26T06:41:26.106Z,15.57
2023-10-26T06:43:27.984Z,14.00
2023-10-26T06:45:29.477Z,15.20
2023-10-26T06:47:30.875Z,15.23
2023-10-26T06:49:32.333Z,14.90
2023-10-26T06:51:33.832Z,15.60
2023-10-26T06:53:35.294Z,15.52
2023-10-26T06:55:36.786Z,15.98
2023-10-26T06:57:38.238Z,15.80
2023-10-26T06:59:39.665Z,15.50
2023-10-26T07:02:07.399Z,16.48
2023-10-26T07:04:02.738Z,16.20
2023-10-26T07:06:05.547Z,16.15
2023-10-26T07:08:07.125Z,17.00
2023-10-26T07:10:15.690Z,16.77
2023-10-26T07:12:17.171Z,16.90
2023-10-26T07:14:18.624Z,16.30
2023-10-26T07:16:20.101Z,17.42
2023-10-26T07:18:21.612Z,17.30
2023-10-26T07:20:23.109Z,15.70
2023-10-26T07:22:24.637Z,17.77
2023-10-26T07:24:26.092Z,17.98
2023-10-26T07:26:27.556Z,17.40
2023-10-26T07:28:29.289Z,18.73
2023-10-26T07:30:30.807Z,18.50
2023-10-26T07:32:32.328Z,18.27
2023-10-26T07:34:33.869Z,18.58
2023-10-26T07:36:35.520Z,19.05
2023-10-26T07:38:37.709Z,19.27
2023-10-26T07:40:39.613Z,18.50
2023-10-26T07:42:41.086Z,19.88
2023-10-26T07:44:43.022Z,20.00
2023-10-26T07:46:44.586Z,20.13
2023-10-26T07:48:46.109Z,20.50
2023-10-26T07:50:47.567Z,20.52
2023-10-26T07:52:49.206Z,19.60
2023-10-26T07:54:51.848Z,20.67
2023-10-26T07:56:53.274Z,19.92
2023-10-26T07:58:55.881Z,21.00
2023-10-26T08:00:57.514Z,20.45
2023-10-26T08:02:59.788Z,20.23
2023-10-26T08:05:01.500Z,19.15
2023-10-26T08:07:03.046Z,19.30
2023-10-26T08:09:04.663Z,18.38
2023-10-26T08:11:14.095Z,19.17
2023-10-26T08:13:16.694Z,19.73
2023-10-26T08:16:10.072Z,19.65
2023-10-26T08:17:39.948Z,19.75
2023-10-26T08:19:42.276Z,19.35
2023-10-26T08:21:43.701Z,19.98
2023-10-26T08:23:45.140Z,20.80
2023-10-26T08:25:46.979Z,18.80
2023-10-26T08:27:48.478Z,19.90
2023-10-26T08:29:51.248Z,20.10
2023-10-26T08:31:52.794Z,20.63
2023-10-26T08:33:54.286Z,19.45
2023-10-26T08:35:55.850Z,21.00
2023-10-26T08:37:57.365Z,19.73
2023-10-26T08:39:58.842Z,20.42
2023-10-26T08:42:02.728Z,19.77
2023-10-26T08:44:05.019Z,21.95
2023-10-26T08:46:11.739Z,20.05
2023-10-26T08:48:17.806Z,20.40
2023-10-26T08:50:24.724Z,18.83
2023-10-26T08:52:28.028Z,19.92
2023-10-26T08:54:29.634Z,19.67
2023-10-26T08:56:31.075Z,19.73
2023-10-26T08:58:32.535Z,19.15
2023-10-26T09:00:35.787Z,18.05
2023-10-26T09:02:37.470Z,19.92
2023-10-26T09:04:39.143Z,19.60
2023-10-26T09:06:49.926Z,19.50
2023-10-26T09:09:03.356Z,19.63
2023-10-26T09:11:21.380Z,18.58
2023-10-26T09:13:30.610Z,17.45
2023-10-26T09:15:50.041Z,19.38
2023-10-26T09:17:54.170Z,18.83
2023-10-26T09:19:56.144Z,20.55
2023-10-26T09:21:59.036Z,20.10
2023-10-26T09:24:00.500Z,18.85
2023-10-26T09:26:07.930Z,19.40
2023-10-26T09:28:09.453Z,19.02
2023-10-26T09:30:30.800Z,18.02
2023-10-26T09:32:36.807Z,19.98
2023-10-26T09:34:46.922Z,18.25
2023-10-26T09:37:03.753Z,18.55
2023-10-26T09:39:09.871Z,17.95
2023-10-26T09:41:17.513Z,19.45
2023-10-26T09:43:19.149Z,18.50
2023-10-26T09:45:21.248Z,18.20
2023-10-26T09:47:25.594Z,18.00
2023-10-26T09:49:28.182Z,16.02
2023-10-26T09:51:29.802Z,16.83
2023-10-26T09:53:40.250Z,15.02
2023-10-26T09:55:45.106Z,14.80
2023-10-26T09:57:57.603Z,15.07
2023-10-26T10:00:08.262Z,13.32
2023-10-26T10:02:17.273Z,13.98
2023-10-26T10:04:38.620Z,13.95
2023-10-26T10:06:51.445Z,13.55
2023-10-26T10:09:03.134Z,14.93
2023-10-26T10:11:18.538Z,13.48
2023-10-26T10:13:46.572Z,14.27
2023-10-26T10:15:48.062Z,12.85
2023-10-26T10:17:50.357Z,12.60
2023-10-26T10:20:18.354Z,12.13
2023-10-26T10:22:34.827Z,14.15
2023-10-26T10:24:44.063Z,13.18
2023-10-26T10:27:11.363Z,13.30
2023-10-26T10:29:20.351Z,13.15
2023-10-26T10:31:25.096Z,12.23
2023-10-26T10:33:29.435Z,11.85
2023-10-26T10:35:45.112Z,11.55
2023-10-26T10:38:12.199Z,11.98
2023-10-26T10:40:15.627Z,10.95
2023-10-26T10:42:17.678Z,10.77
2023-10-26T10:44:19.892Z,11.50
2023-10-26T10:46:25.004Z,11.00
2023-10-26T10:48:27.068Z,12.82
2023-10-26T10:50:29.027Z,12.07
2023-10-26T10:52:30.539Z,11.77
2023-10-26T10:54:46.776Z,11.15
2023-10-26T10:56:52.512Z,9.80
2023-10-26T10:58:55.608Z,8.93
2023-10-26T11:00:57.110Z,9.57
2023-10-26T11:02:58.626Z,9.82
2023-10-26T11:07:30.084Z,9.35
2023-10-26T11:09:39.173Z,9.48
2023-10-26T11:11:40.633Z,9.30
2023-10-26T11:13:42.548Z,9.30
2023-10-26T11:15:44.004Z,9.55
2023-10-26T11:17:45.982Z,10.13
2023-10-26T11:19:51.176Z,10.75
2023-10-26T11:21:56.626Z,10.90
2023-10-26T11:23:58.315Z,10.00
2023-10-26T11:26:14.383Z,10.23
2023-10-26T11:28:15.905Z,10.65
2023-10-26T11:30:17.342Z,10.80
2023-10-26T11:32:26.560Z,10.75
2023-10-26T11:34:29.058Z,10.93
2023-10-26T11:36:30.606Z,10.50
2023-10-26T11:38:33.038Z,10.73
2023-10-26T11:40:34.564Z,9.20
2023-10-26T11:42:57.111Z,9.63
2023-10-26T11:44:58.660Z,10.80
2023-10-26T11:47:01.303Z,9.93
2023-10-26T11:49:06.543Z,10.23
2023-10-26T11:51:08.734Z,9.90
2023-10-26T11:53:10.203Z,10.27
2023-10-26T11:55:11.936Z,11.00
2023-10-26T11:57:13.411Z,11.02
2023-10-26T11:59:15.908Z,10.07
2023-10-26T12:01:17.365Z,10.15
2023-10-26T12:03:18.892Z,8.35
2023-10-26T12:05:20.842Z,8.60
2023-10-26T12:07:22.440Z,8.73
2023-10-26T12:09:23.868Z,9.13
2023-10-26T12:11:25.624Z,9.80
2023-10-26T12:13:27.050Z,9.48
2023-10-26T12:15:29.297Z,9.40
2023-10-26T12:17:30.979Z,9.43
2023-10-26T12:19:32.748Z,9.50
2023-10-26T12:21:34.184Z,10.48
2023-10-26T12:23:35.655Z,11.05
2023-10-26T12:25:37.256Z,10.05
2023-10-26T12:28:21.600Z,10.45
2023-10-26T12:30:01.403Z,10.07
2023-10-26T12:32:02.924Z,9.57
2023-10-26T12:34:05.454Z,9.65
2023-10-26T12:36:06.998Z,9.32
2023-10-26T12:38:08.580Z,6.70
2023-10-26T12:40:10.265Z,6.85
2023-10-26T12:42:11.741Z,5.60
2023-10-26T12:44:13.641Z,4.85
2023-10-26T12:46:15.111Z,4.75
2023-10-26T12:48:16.637Z,4.90
2023-10-26T12:50:18.396Z,4.57
2023-10-26T12:52:19.857Z,5.63
2023-10-26T12:54:21.326Z,5.05
2023-10-26T12:56:22.753Z,6.38
2023-10-26T12:58:24.308Z,5.82
2023-10-26T13:00:25.843Z,5.25
2023-10-26T13:02:27.323Z,6.10
2023-10-26T13:04:29.072Z,6.30
2023-10-26T13:06:30.719Z,6.07
2023-10-26T13:08:32.132Z,5.88
2023-10-26T13:10:33.643Z,5.25
2023-10-26T13:12:35.161Z,5.25
2023-10-26T13:14:36.644Z,5.30
2023-10-26T13:16:57.184Z,5.03
2023-10-26T13:18:59.841Z,5.82
2023-10-26T13:21:01.270Z,5.07
2023-10-26T13:23:02.835Z,4.93
2023-10-26T13:25:04.875Z,5.25
2023-10-26T13:27:06.392Z,5.00
2023-10-26T13:29:07.839Z,5.00
2023-10-26T13:31:09.409Z,4.93
2023-10-26T13:33:11.033Z,5.00
2023-10-26T13:35:12.840Z,5.55
2023-10-26T13:37:14.416Z,5.25
2023-10-26T13:39:15.898Z,4.30
2023-10-26T13:41:17.379Z,5.05
2023-10-26T13:43:18.812Z,3.90
2023-10-26T13:45:20.456Z,3.90
2023-10-26T13:47:22.788Z,3.47
2023-10-26T13:49:24.322Z,3.88
2023-10-26T13:51:25.881Z,3.83
2023-10-26T13:53:27.421Z,3.53
2023-10-26T13:55:29.131Z,3.03
2023-10-26T13:57:31.042Z,3.55
2023-10-26T13:59:32.726Z,3.25
2023-10-26T14:01:34.310Z,2.97
2023-10-26T14:03:35.864Z,3.00
2023-10-26T14:05:38.559Z,2.60
2023-10-26T14:07:40.197Z,2.70
2023-10-26T14:09:41.653Z,2.90
2023-10-26T14:11:43.318Z,3.45
2023-10-26T14:13:44.750Z,2.97
2023-10-26T14:15:46.179Z,2.72
2023-10-26T14:17:48.213Z,3.10
2023-10-26T14:19:49.696Z,3.35
2023-10-26T14:21:51.283Z,3.55
2023-10-26T14:23:52.807Z,3.40
2023-10-26T14:25:54.219Z,2.92
2023-10-26T14:27:58.033Z,3.17
2023-10-26T14:29:59.597Z,3.25
2023-10-26T14:32:01.125Z,2.85
2023-10-26T14:34:04.617Z,3.00
2023-10-26T14:36:07.243Z,2.63
2023-10-26T14:38:10.371Z,2.80
2023-10-26T14:40:12.139Z,2.60
2023-10-26T14:42:16.187Z,2.90
2023-10-26T14:44:17.680Z,3.15
2023-10-26T14:46:19.161Z,2.72
2023-10-26T14:48:21.114Z,3.00
2023-10-26T14:50:22.642Z,3.00
2023-10-26T14:52:25.282Z,3.05
2023-10-26T14:54:26.784Z,2.50
2023-10-26T14:56:28.279Z,2.53
2023-10-26T14:58:29.940Z,2.80
2023-10-26T15:00:31.457Z,3.00
2023-10-26T15:02:32.960Z,2.60
2023-10-26T15:04:34.429Z,2.72
2023-10-26T15:06:35.911Z,2.88
2023-10-26T15:08:37.436Z,2.20
2023-10-26T15:10:48.042Z,2.53
2023-10-26T15:12:49.594Z,2.45
2023-10-26T15:14:51.736Z,2.63
2023-10-26T15:16:55.636Z,2.40
2023-10-26T15:18:57.510Z,3.38
2023-10-26T15:21:05.272Z,2.67
2023-10-26T15:23:06.750Z,2.90
2023-10-26T15:25:08.335Z,3.13
2023-10-26T15:27:12.151Z,3.40
2023-10-26T15:29:13.605Z,3.25
2023-10-26T15:31:15.145Z,2.75
2023-10-26T15:33:16.641Z,2.67
2023-10-26T15:35:18.046Z,2.65
2023-10-26T15:37:22.254Z,3.38
2023-10-26T15:39:23.707Z,3.08
2023-10-26T15:41:25.131Z,2.55
2023-10-26T15:43:26.784Z,2.70
2023-10-26T15:45:28.332Z,3.00
2023-10-26T15:47:29.858Z,3.22
2023-10-26T15:49:36.711Z,3.17
2023-10-26T15:51:38.312Z,3.50
2023-10-26T15:53:39.738Z,3.13
2023-10-26T15:55:41.643Z,3.30
2023-10-26T15:57:43.097Z,3.15
2023-10-26T15:59:44.619Z,3.20
2023-10-26T16:01:46.130Z,3.08
2023-10-26T16:03:47.743Z,3.17
2023-10-26T16:05:49.229Z,3.38
2023-10-26T16:07:50.624Z,3.55
2023-10-26T16:09:52.470Z,3.85
2023-10-26T16:11:53.908Z,3.88
2023-10-26T16:13:55.358Z,3.50
2023-10-26T16:15:57.479Z,3.80
2023-10-26T16:17:58.995Z,3.85
2023-10-26T16:20:00.519Z,4.50
2023-10-26T16:22:02.061Z,4.10
2023-10-26T16:24:03.713Z,4.03
2023-10-26T16:26:05.143Z,4.40
2023-10-26T16:28:09.218Z,4.10
2023-10-26T16:30:10.967Z,4.30
2023-10-26T16:32:12.446Z,4.65
2023-10-26T16:34:13.947Z,4.88
2023-10-26T16:36:15.437Z,5.05
2023-10-26T16:38:16.874Z,5.18
2023-10-26T16:40:19.452Z,5.93
2023-10-26T16:42:20.880Z,5.50
2023-10-26T16:44:23.489Z,5.55
2023-10-26T16:46:25.102Z,7.10
2023-10-26T16:48:27.560Z,6.03
2023-10-26T16:50:29.317Z,6.40
2023-10-26T16:52:31.602Z,6.82
2023-10-26T16:54:33.022Z,6.55
2023-10-26T16:56:34.526Z,6.78
2023-10-26T16:58:36.202Z,7.07
2023-10-26T17:00:37.773Z,7.13
2023-10-26T17:02:39.293Z,6.63
2023-10-26T17:04:42.266Z,7.10
2023-10-26T17:06:43.933Z,6.93
2023-10-26T17:08:45.414Z,7.45
2023-10-26T17:10:49.265Z,7.10
2023-10-26T17:12:50.798Z,8.07
2023-10-26T17:14:52.224Z,8.07
2023-10-26T17:16:53.746Z,6.93
2023-10-26T17:18:57.179Z,7.65
2023-10-26T17:20:58.754Z,8.45
2023-10-26T17:23:00.272Z,11.50
2023-10-26T17:25:01.893Z,24.92
2023-10-26T17:27:03.738Z,31.25
2023-10-26T17:29:05.202Z,25.38
2023-10-26T17:31:06.874Z,17.90
2023-10-26T17:33:11.731Z,15.60
2023-10-26T17:35:15.018Z,39.42
2023-10-26T17:37:16.477Z,37.50
2023-10-26T17:39:18.114Z,23.88
2023-10-26T17:41:19.586Z,12.00
2023-10-26T17:43:21.051Z,10.32
2023-10-26T17:45:22.699Z,14.15
2023-10-26T17:47:24.428Z,17.33
2023-10-26T17:49:26.009Z,18.63
2023-10-26T17:51:29.990Z,14.10
2023-10-26T17:53:31.465Z,16.13
2023-10-26T17:55:33.028Z,18.95
2023-10-26T17:57:34.517Z,19.73
2023-10-26T17:59:36.011Z,18.35
2023-10-26T18:01:39.374Z,18.83
2023-10-26T18:03:40.882Z,18.05
2023-10-26T18:05:44.093Z,16.95
2023-10-26T18:07:45.534Z,17.52
2023-10-26T18:09:47.711Z,15.73
2023-10-26T18:11:49.327Z,15.02
2023-10-26T18:13:50.802Z,14.27
2023-10-26T18:15:55.965Z,13.25
2023-10-26T18:17:57.519Z,12.23
2023-10-26T18:19:59.041Z,10.10
2023-10-26T18:22:00.510Z,11.25
2023-10-26T18:24:02.107Z,10.75
2023-10-26T18:26:05.862Z,10.90
2023-10-26T18:28:07.328Z,11.00
2023-10-26T18:30:09.300Z,11.63
2023-10-26T18:32:10.888Z,13.18
2023-10-26T18:34:13.865Z,16.17
2023-10-26T18:36:18.342Z,13.35
2023-10-26T18:38:19.770Z,12.20
2023-10-26T18:40:21.347Z,10.50
2023-10-26T18:42:22.876Z,11.40
2023-10-26T18:44:24.313Z,10.35
2023-10-26T18:46:26.043Z,11.55
2023-10-26T18:48:40.814Z,11.48
2023-10-26T18:50:42.412Z,10.85
2023-10-26T18:52:43.960Z,10.70
2023-10-26T18:54:45.493Z,11.20
2023-10-26T18:56:47.360Z,10.10
2023-10-26T18:58:49.314Z,11.00
2023-10-26T19:00:50.954Z,10.77
2023-10-26T19:02:52.475Z,10.77
2023-10-26T19:04:53.918Z,10.68
2023-10-26T19:06:55.422Z,10.98
2023-10-26T19:08:57.020Z,10.45
2023-10-26T19:10:58.535Z,11.32
2023-10-26T19:13:00.151Z,10.95
2023-10-26T19:15:01.673Z,11.82
2023-10-26T19:17:04.562Z,10.90
2023-10-26T19:19:06.298Z,11.23
2023-10-26T19:21:09.505Z,10.80
2023-10-26T19:23:11.288Z,11.82
2023-10-26T19:25:13.423Z,12.93
2023-10-26T19:27:14.881Z,24.33
2023-10-26T19:29:17.093Z,18.50
2023-10-26T19:31:18.747Z,18.92
2023-10-26T19:33:20.401Z,16.40
2023-10-26T19:35:21.830Z,13.27
2023-10-26T19:37:24.237Z,12.93
2023-10-26T19:39:25.780Z,11.05
2023-10-26T19:41:27.257Z,11.25
2023-10-26T19:43:28.689Z,11.27
2023-10-26T19:45:30.319Z,9.88
2023-10-26T19:47:32.098Z,11.60
2023-10-26T19:49:33.567Z,11.40
2023-10-26T19:51:35.070Z,11.82
2023-10-26T19:53:36.629Z,11.98
2023-10-26T19:55:40.738Z,14.77
2023-10-26T19:57:42.422Z,13.30
2023-10-26T19:59:44.566Z,11.90
2023-10-26T20:01:46.531Z,10.50
2023-10-26T20:03:49.236Z,11.13
2023-10-26T20:05:50.744Z,10.43
2023-10-26T20:07:52.274Z,11.02
2023-10-26T20:09:54.898Z,11.27
2023-10-26T20:11:56.760Z,11.23
2023-10-26T20:13:58.734Z,11.75
2023-10-26T20:16:00.254Z,10.48
2023-10-26T20:18:01.829Z,10.90
2023-10-26T20:22:33.957Z,11.65
2023-10-26T20:24:35.472Z,11.27
2023-10-26T20:26:40.580Z,10.68
2023-10-26T20:28:42.028Z,11.07
2023-10-26T20:30:44.231Z,11.50
2023-10-26T20:32:45.838Z,11.00
2023-10-26T20:34:47.301Z,11.48
2023-10-26T20:36:50.345Z,11.82
2023-10-26T20:38:52.543Z,11.57
2023-10-26T20:40:53.985Z,12.63
2023-10-26T20:42:55.446Z,11.23
2023-10-26T20:44:57.699Z,11.38
2023-10-26T20:46:59.236Z,11.30
2023-10-26T20:49:00.794Z,11.18
2023-10-26T20:51:07.488Z,11.48
2023-10-26T20:53:08.915Z,11.40
2023-10-26T20:55:10.558Z,11.35
2023-10-26T20:57:12.568Z,12.80
2023-10-26T20:59:14.020Z,11.45
2023-10-26T21:01:15.501Z,10.95
2023-10-26T21:03:22.855Z,11.15
2023-10-26T21:05:24.267Z,12.20
2023-10-26T21:07:25.746Z,11.27
2023-10-26T21:09:27.977Z,12.00
2023-10-26T21:11:29.488Z,12.60
2023-10-26T21:13:31.747Z,12.98
2023-10-26T21:15:33.255Z,11.93
2023-10-26T21:17:37.381Z,12.63
2023-10-26T21:19:38.877Z,12.13
2023-10-26T21:21:40.319Z,10.77
2023-10-26T21:23:41.799Z,12.48
2023-10-26T21:25:43.514Z,11.85
2023-10-26T21:27:45.050Z,10.90
2023-10-26T21:29:46.497Z,10.57
2023-10-26T21:31:48.223Z,10.57
2023-10-26T21:33:49.963Z,11.13
2023-10-26T21:35:51.418Z,10.90
2023-10-26T21:37:52.891Z,11.32
2023-10-26T21:39:54.345Z,11.18
2023-10-26T21:41:55.927Z,10.98
2023-10-26T21:43:57.373Z,10.82
2023-10-26T21:46:03.068Z,10.73
2023-10-26T21:48:05.065Z,11.05
2023-10-26T21:50:07.471Z,10.95
2023-10-26T21:52:08.985Z,11.20
2023-10-26T21:54:10.490Z,10.82
2023-10-26T21:56:11.957Z,10.80
2023-10-26T21:58:13.427Z,11.57
2023-10-26T22:00:16.468Z,10.45
2023-10-26T22:02:17.965Z,11.32
2023-10-26T22:04:22.554Z,11.27
2023-10-26T22:06:25.060Z,11.18
2023-10-26T22:08:26.551Z,11.18
2023-10-26T22:10:28.136Z,10.88
2023-10-26T22:12:29.562Z,11.52
2023-10-26T22:14:33.310Z,10.43
2023-10-26T22:16:34.796Z,11.20
2023-10-26T22:18:36.392Z,12.20
2023-10-26T22:20:38.137Z,11.30
2023-10-26T22:22:40.085Z,11.15
2023-10-26T22:24:43.841Z,11.82
2023-10-26T22:26:45.238Z,10.73
2023-10-26T22:28:52.584Z,12.30
2023-10-26T22:30:54.248Z,11.23
2023-10-26T22:32:56.097Z,11.77
2023-10-26T22:34:57.613Z,11.95
2023-10-26T22:36:59.352Z,10.65
2023-10-26T22:39:00.900Z,10.32
2023-10-26T22:41:04.704Z,11.20
2023-10-26T22:43:09.356Z,11.23
2023-10-26T22:45:12.053Z,11.38
2023-10-26T22:47:13.540Z,11.15
2023-10-26T22:49:15.074Z,10.63
2023-10-26T22:51:16.616Z,10.95
2023-10-26T22:53:18.404Z,10.98
2023-10-26T22:55:19.937Z,10.82
2023-10-26T22:57:21.434Z,11.38
2023-10-26T22:59:23.019Z,11.25
2023-10-26T23:01:24.582Z,11.25
2023-10-26T23:03:26.027Z,10.85
2023-10-26T23:05:27.564Z,10.80
2023-10-26T23:07:29.070Z,10.80
2023-10-26T23:09:30.552Z,10.57
2023-10-26T23:11:32.362Z,10.48
2023-10-26T23:13:33.928Z,11.23
2023-10-26T23:15:35.524Z,10.57
2023-10-26T23:17:37.053Z,10.23
2023-10-26T23:19:38.568Z,11.05
2023-10-26T23:21:40.092Z,10.82
2023-10-26T23:23:42.281Z,10.88
2023-10-26T23:25:45.319Z,10.85
2023-10-26T23:27:47.006Z,11.00
2023-10-26T23:29:48.481Z,11.68
2023-10-26T23:31:50.153Z,11.63
2023-10-26T23:33:53.215Z,11.43
2023-10-26T23:35:54.697Z,10.85
2023-10-26T23:37:56.102Z,12.10
2023-10-26T23:39:58.964Z,11.55
2023-10-26T23:42:00.461Z,11.95
2023-10-26T23:44:01.911Z,12.30
2023-10-26T23:46:03.498Z,12.60
2023-10-26T23:48:05.102Z,11.70
2023-10-26T23:50:07.348Z,11.90
2023-10-26T23:52:08.840Z,11.95
2023-10-26T23:54:11.199Z,12.50
2023-10-26T23:56:13.984Z,12.13
2023-10-26T23:58:15.749Z,12.25
